Time;durP1;ratioP1;P1;durP2;ratioP2;P2;SDS_P1;SDS_P2;PMS_P1;PMS_P2;Temp;Humidity;BMP_temperature;BMP_pressure;BME280_temperature;BME280_humidity;BME280_pressure;Samples;Min_cycle;Max_cycle;Signal;HPM_P1;HPM_P2
2022/10/14 00:00:17;;;;;;;4.38;2.75;;;13.10;87.10;;;11.72;100.00;96201.91;4987024;28;20057;-65
2022/10/14 00:02:42;;;;;;;4.65;3.03;;;13.10;87.10;;;11.73;100.00;96203.53;4972053;28;20145;-66
2022/10/14 00:05:08;;;;;;;4.35;2.88;;;13.20;86.90;;;11.73;100.00;96199.06;4986456;28;20195;-66
2022/10/14 00:07:35;;;;;;;3.28;2.83;;;13.20;87.00;;;11.74;100.00;96199.88;4969862;28;20026;-66
2022/10/14 00:10:01;;;;;;;4.93;3.40;;;13.20;86.90;;;11.74;100.00;96202.50;4999688;28;20029;-66
2022/10/14 00:12:32;;;;;;;5.03;3.05;;;13.20;87.00;;;11.75;100.00;96204.16;4987385;28;20434;-66
2022/10/14 00:14:57;;;;;;;9.13;3.45;;;13.20;86.90;;;11.75;100.00;96207.59;4971283;28;20034;-66
2022/10/14 00:17:23;;;;;;;4.55;3.17;;;13.20;87.10;;;11.73;100.00;96203.53;4992758;28;20065;-66
2022/10/14 00:19:49;;;;;;;6.35;4.28;;;13.20;87.20;;;11.72;100.00;96207.97;4980241;28;20157;-66
2022/10/14 00:22:15;;;;;;;5.60;3.40;;;13.10;87.30;;;11.72;100.00;96202.72;4997951;28;20131;-65
2022/10/14 00:24:41;;;;;;;6.38;3.67;;;13.10;87.30;;;11.72;100.00;96210.63;4990410;28;20084;-66
2022/10/14 00:27:07;;;;;;;4.97;3.80;;;13.20;87.30;;;11.73;100.00;96214.06;5003571;28;20129;-66
2022/10/14 00:29:32;;;;;;;6.13;3.60;;;13.20;87.10;;;11.73;100.00;96214.06;4970786;28;20083;-66
2022/10/14 00:31:58;;;;;;;7.35;4.05;;;13.10;87.30;;;11.71;100.00;96205.53;4970097;28;20069;-65
2022/10/14 00:34:24;;;;;;;5.57;4.00;;;13.10;87.60;;;11.70;100.00;96212.63;4986418;28;22223;-65
2022/10/14 00:36:49;;;;;;;4.82;3.45;;;13.10;87.70;;;11.70;100.00;96207.38;4970649;28;20490;-66
2022/10/14 00:39:15;;;;;;;6.95;3.80;;;13.20;87.50;;;11.71;100.00;96202.91;4983156;28;20088;-66
2022/10/14 00:41:41;;;;;;;5.43;3.65;;;13.20;87.40;;;11.73;100.00;96208.78;4967987;28;20540;-66
2022/10/14 00:44:10;;;;;;;4.57;3.47;;;13.20;87.30;;;11.75;100.00;96202.31;4955721;28;20399;-65
2022/10/14 00:46:38;;;;;;;7.72;4.43;;;13.20;87.30;;;11.75;100.00;96207.59;5006244;28;20042;-65
2022/10/14 00:49:24;;;;;;;5.57;4.22;;;13.30;87.40;;;11.78;100.00;96201.16;4957952;28;20045;-65
2022/10/14 00:52:02;;;;;;;8.25;4.10;;;13.30;87.40;;;11.79;100.00;96203.63;4990797;28;20030;-66
2022/10/14 00:54:33;;;;;;;6.07;3.60;;;13.20;87.40;;;11.79;100.00;96197.53;4982777;28;20035;-65
2022/10/14 00:56:59;;;;;;;;;;;13.20;87.50;;;11.78;100.00;96198.50;4971714;28;20121;-65
2022/10/14 00:59:24;;;;;;;5.95;4.30;;;13.30;87.50;;;11.78;100.00;96207.25;5000649;28;20337;-65
2022/10/14 01:01:50;;;;;;;9.65;4.50;;;13.40;87.50;;;11.81;100.00;96198.16;4961599;28;20112;-65
2022/10/14 01:04:16;;;;;;;6.80;4.13;;;13.30;87.40;;;11.82;100.00;96205.06;4986718;28;20069;-65
2022/10/14 01:06:52;;;;;;;6.63;3.92;;;13.40;87.40;;;11.83;100.00;96201.41;4980867;28;20038;-65
2022/10/14 01:09:28;;;;;;;7.22;3.65;;;13.40;87.50;;;11.85;100.00;96202.03;5002352;28;20132;-65
2022/10/14 01:12:02;;;;;;;5.70;3.50;;;13.40;87.40;;;11.85;100.00;96202.03;4954989;28;20031;-65
2022/10/14 01:14:36;;;;;;;5.13;3.70;;;13.30;87.40;;;11.86;100.00;96203.66;5004534;28;20034;-65
2022/10/14 01:18:08;;;;;;;4.78;3.63;;;13.40;87.40;;;11.87;100.00;96203.47;4981779;28;20569;-66
2022/10/14 01:21:14;;;;;;;;;;;13.40;87.40;;;11.84;100.00;96200.41;4969866;28;20065;-66
2022/10/14 01:24:04;;;;;;;6.40;3.85;;;13.50;87.60;;;11.87;100.00;96205.28;5005820;28;19973;-65
2022/10/14 01:27:09;;;;;;;5.93;4.15;;;13.40;87.40;;;11.87;100.00;96200.81;4992304;28;20049;-66
2022/10/14 01:29:56;;;;;;;5.65;4.25;;;13.50;87.40;;;11.88;100.00;96202.44;4992410;28;20033;-66
2022/10/14 01:32:47;;;;;;;6.60;3.92;;;13.50;87.40;;;11.90;100.00;96197.78;5000221;28;20038;-66
2022/10/14 01:35:43;;;;;;;;;;;13.50;87.30;;;11.88;100.00;96201.63;4995767;28;20100;-66
2022/10/14 01:38:28;;;;;;;4.93;3.55;;;13.50;87.30;;;11.90;100.00;96200.44;5005422;28;19922;-66
2022/10/14 01:41:03;;;;;;;5.03;3.50;;;13.50;87.30;;;11.93;100.00;96200.03;4984282;28;20026;-65
2022/10/14 01:43:29;;;;;;;5.07;4.03;;;13.50;87.30;;;11.94;100.00;96192.94;5004712;28;20030;-65
2022/10/14 01:45:55;;;;;;;5.90;3.75;;;13.60;87.30;;;11.95;100.00;96192.75;4970659;28;20417;-65
2022/10/14 01:48:23;;;;;;;4.60;3.30;;;13.60;87.20;;;11.98;100.00;96191.53;4985065;28;20046;-65
2022/10/14 01:50:49;;;;;;;5.57;3.42;;;13.50;87.10;;;11.96;100.00;96186.47;4974579;28;20037;-66
2022/10/14 01:53:24;;;;;;;4.60;3.10;;;13.60;87.00;;;11.98;100.00;96199.44;4999026;28;20034;-65
2022/10/14 01:55:51;;;;;;;4.65;3.67;;;13.50;87.20;;;11.96;100.00;96191.72;4972516;28;20038;-65
2022/10/14 01:58:17;;;;;;;5.35;3.25;;;13.50;87.40;;;11.95;100.00;96197.19;4985795;28;20046;-65
2022/10/14 02:00:43;;;;;;;6.40;3.30;;;13.50;87.40;;;11.95;100.00;96194.56;4973957;28;20752;-65
2022/10/14 02:03:11;;;;;;;5.78;3.42;;;13.50;87.50;;;11.96;100.00;96196.19;5004338;28;20176;-66
2022/10/14 02:05:59;;;;;;;4.20;3.40;;;13.50;87.40;;;11.96;100.00;96199.63;5008298;28;20520;-66
2022/10/14 02:08:56;;;;;;;4.85;3.40;;;13.50;87.40;;;11.96;100.00;96198.81;4990127;28;20093;-65
2022/10/14 02:11:22;;;;;;;5.45;3.22;;;13.50;87.30;;;11.93;100.00;96199.22;5002130;28;20061;-66
2022/10/14 02:14:19;;;;;;;4.53;3.50;;;13.50;87.30;;;11.93;100.00;96194.75;4976197;28;20120;-65
2022/10/14 02:16:48;;;;;;;4.70;3.78;;;13.50;87.30;;;11.93;100.00;96196.59;5006939;28;20038;-66
2022/10/14 02:19:21;;;;;;;8.40;4.50;;;13.50;87.30;;;11.93;100.00;96201.84;5007660;28;20109;-65
2022/10/14 02:22:22;;;;;;;7.28;4.65;;;13.40;87.50;;;11.91;100.00;96196.78;4987835;28;20101;-66
2022/10/14 02:24:51;;;;;;;8.82;7.25;;;13.40;87.60;;;11.88;100.00;96202.44;4972366;28;20034;-65
2022/10/14 02:27:18;;;;;;;14.50;8.07;;;13.40;87.80;;;11.87;100.00;96200.00;4990242;28;20041;-65
2022/10/14 02:29:45;;;;;;;9.05;7.45;;;13.40;87.80;;;11.86;100.00;96199.19;4989548;28;20026;-66
2022/10/14 02:32:11;;;;;;;7.82;6.03;;;13.40;87.70;;;11.87;100.00;96195.53;4970783;28;20463;-65
2022/10/14 02:34:37;;;;;;;7.55;5.40;;;13.40;87.60;;;11.87;100.00;96200.81;4955666;28;20042;-66
2022/10/14 02:37:03;;;;;;;7.85;6.05;;;13.30;87.60;;;11.85;100.00;96200.19;4990593;28;20117;-66
2022/10/14 02:39:36;;;;;;;10.13;8.88;;;13.30;87.80;;;11.86;100.00;96201.00;4985907;28;20026;-67
2022/10/14 02:42:02;;;;;;;8.60;5.82;;;13.30;87.80;;;11.86;100.00;96201.00;4956483;28;20522;-65
2022/10/14 02:44:28;;;;;;;8.50;5.20;;;13.40;87.60;;;11.86;100.00;96206.28;4989451;28;20109;-65
2022/10/14 02:46:55;;;;;;;6.65;4.85;;;13.30;87.60;;;11.86;100.00;96207.09;4985626;28;20095;-65
2022/10/14 02:49:20;;;;;;;5.53;4.07;;;13.40;87.60;;;11.86;100.00;96203.66;4981969;28;20030;-65
2022/10/14 02:51:46;;;;;;;7.35;4.80;;;13.40;87.50;;;11.86;100.00;96203.66;4972936;28;20402;-65
2022/10/14 02:54:12;;;;;;;6.40;4.95;;;13.40;87.60;;;11.85;100.00;96202.03;5005953;28;20121;-65
2022/10/14 02:56:38;;;;;;;8.80;4.85;;;13.30;87.90;;;11.85;100.00;96199.38;4977000;28;20046;-65
2022/10/14 02:59:04;;;;;;;6.25;4.90;;;13.30;87.80;;;11.84;100.00;96200.41;4981817;28;20031;-65
2022/10/14 03:01:29;;;;;;;6.50;4.78;;;13.30;87.80;;;11.86;100.00;96203.66;4981908;28;20132;-65
2022/10/14 03:03:55;;;;;;;7.72;4.70;;;13.40;87.60;;;11.84;100.00;96201.22;4991122;28;20029;-65
2022/10/14 03:06:21;;;;;;;6.78;4.63;;;13.30;87.60;;;11.86;100.00;96207.09;4991622;28;20073;-66
2022/10/14 03:08:47;;;;;;;5.18;4.40;;;13.40;87.60;;;11.85;100.00;96199.38;5003417;28;20083;-66
2022/10/14 03:11:12;;;;;;;5.47;4.88;;;13.40;87.60;;;11.85;100.00;96197.56;4997694;28;20489;-65
2022/10/14 03:13:38;;;;;;;15.43;12.85;;;13.40;87.50;;;11.86;100.00;96195.75;4976086;28;20038;-66
2022/10/14 03:16:04;;;;;;;16.13;13.27;;;13.40;87.50;;;11.85;100.00;96197.56;5005164;28;20124;-66
2022/10/14 03:18:30;;;;;;;15.65;11.88;;;13.40;87.60;;;11.87;100.00;96200.00;4991915;28;20407;-65
2022/10/14 03:20:56;;;;;;;7.40;5.57;;;13.40;87.60;;;11.86;100.00;96199.19;5006684;28;20068;-65
2022/10/14 03:23:21;;;;;;;7.18;4.50;;;13.40;87.30;;;11.88;100.00;96204.25;4978929;28;20122;-65
2022/10/14 03:25:47;;;;;;;6.03;4.95;;;13.50;87.30;;;11.88;100.00;96202.44;4981117;28;20030;-66
2022/10/14 03:28:13;;;;;;;11.50;9.00;;;13.50;87.30;;;11.89;100.00;96195.34;4972437;28;20096;-65
2022/10/14 03:30:39;;;;;;;8.20;6.15;;;13.50;87.30;;;11.89;100.00;96193.53;5004973;28;20066;-66
2022/10/14 03:33:04;;;;;;;10.02;7.53;;;13.50;87.10;;;11.89;100.00;96192.72;4989033;28;20135;-65
2022/10/14 03:35:30;;;;;;;13.20;11.85;;;13.50;87.00;;;11.89;100.00;96196.16;5001345;28;20117;-65
2022/10/14 03:37:58;;;;;;;12.77;9.25;;;13.50;87.10;;;11.88;100.00;96196.34;4998822;28;20049;-65
2022/10/14 03:40:24;;;;;;;10.65;8.63;;;13.50;87.00;;;11.88;100.00;96193.72;5001037;28;20097;-65
2022/10/14 03:42:49;;;;;;;7.45;5.93;;;13.50;86.90;;;11.88;100.00;96199.00;5007012;28;20034;-65
2022/10/14 03:45:15;;;;;;;7.38;5.30;;;13.50;86.80;;;11.86;100.00;96191.28;4987925;28;20035;-65
2022/10/14 03:47:41;;;;;;;7.35;5.20;;;13.40;86.70;;;11.86;100.00;96198.38;4982933;28;20034;-64
2022/10/14 03:50:07;;;;;;;6.55;5.18;;;13.40;86.80;;;11.86;100.00;96203.66;4988889;28;20431;-64
2022/10/14 03:52:33;;;;;;;6.85;4.97;;;13.40;86.80;;;11.85;100.00;96199.38;5006489;28;20436;-64
2022/10/14 03:54:58;;;;;;;8.13;5.35;;;13.40;86.60;;;11.83;100.00;96199.59;4963743;28;20034;-64
2022/10/14 03:57:24;;;;;;;6.38;5.35;;;13.40;86.70;;;11.83;100.00;96193.50;4985928;28;20057;-65
2022/10/14 03:59:50;;;;;;;7.53;5.50;;;13.40;86.60;;;11.82;100.00;96189.25;4973966;28;20041;-66
2022/10/14 04:02:16;;;;;;;6.57;5.47;;;13.40;86.60;;;11.79;100.00;96171.19;4995382;28;20061;-65
2022/10/14 04:04:42;;;;;;;8.40;5.47;;;13.40;86.50;;;11.78;100.00;96180.91;4971374;28;20065;-65
2022/10/14 04:07:07;;;;;;;7.35;4.93;;;13.40;86.50;;;11.78;100.00;96180.06;5002237;28;20050;-65
2022/10/14 04:09:33;;;;;;;6.55;5.13;;;13.40;86.60;;;11.77;100.00;96176.63;4987701;28;20034;-65
2022/10/14 04:11:59;;;;;;;13.48;6.68;;;13.40;86.40;;;11.78;100.00;96180.06;4973788;28;20034;-65
2022/10/14 04:14:27;;;;;;;18.63;10.20;;;13.40;86.50;;;11.76;100.00;96171.50;5008454;28;20038;-64
2022/10/14 04:16:53;;;;;;;25.38;13.23;;;13.40;86.40;;;11.75;100.00;96168.06;4981891;28;20033;-65
2022/10/14 04:19:19;;;;;;;25.63;13.73;;;13.30;86.50;;;11.73;100.00;96166.63;4986124;28;20034;-65
2022/10/14 04:21:45;;;;;;;34.53;17.30;;;13.30;86.50;;;11.71;100.00;96163.38;4974845;28;20453;-65
2022/10/14 04:24:11;;;;;;;33.08;15.95;;;13.30;86.60;;;11.68;100.00;96159.31;4989609;28;20509;-65
2022/10/14 04:26:37;;;;;;;32.92;13.60;;;13.20;86.90;;;11.64;100.00;96158.91;4974218;28;20378;-64
2022/10/14 04:29:03;;;;;;;28.33;13.68;;;13.10;87.00;;;11.62;100.00;96155.66;4984301;28;20104;-65
2022/10/14 04:31:29;;;;;;;20.25;9.32;;;13.10;87.30;;;11.59;100.00;96160.50;5005980;28;20061;-65
2022/10/14 04:33:55;;;;;;;10.88;7.43;;;13.00;87.50;;;11.58;100.00;96158.88;5007474;28;20406;-65
2022/10/14 04:36:20;;;;;;;7.47;5.78;;;13.00;87.50;;;11.55;100.00;96157.44;4988878;28;20081;-65
2022/10/14 04:38:46;;;;;;;9.50;5.95;;;13.00;87.60;;;11.55;100.00;96160.06;5001949;28;20057;-65
2022/10/14 04:41:12;;;;;;;10.20;6.25;;;13.10;87.50;;;11.54;100.00;96166.34;4981422;28;20046;-64
2022/10/14 04:43:38;;;;;;;19.65;11.73;;;13.00;87.50;;;11.51;100.00;96160.63;4969925;28;20088;-64
2022/10/14 04:46:04;;;;;;;17.83;11.70;;;13.00;87.80;;;11.48;100.00;96153.94;4976695;28;20061;-65
2022/10/14 04:48:30;;;;;;;20.80;12.82;;;12.90;88.10;;;11.48;100.00;96153.13;4999247;28;20164;-65
2022/10/14 04:50:55;;;;;;;31.25;17.95;;;12.90;88.10;;;11.45;100.00;96151.69;4972385;28;20061;-65
2022/10/14 04:53:21;;;;;;;37.05;17.70;;;12.90;88.20;;;11.45;100.00;96151.69;5003209;28;20147;-64
2022/10/14 04:55:48;;;;;;;23.92;14.00;;;12.90;88.10;;;11.44;100.00;96150.06;5001276;28;20097;-64
2022/10/14 04:58:14;;;;;;;14.52;9.43;;;13.00;88.00;;;11.43;100.00;96148.44;5003384;28;20034;-63
2022/10/14 05:00:40;;;;;;;11.55;7.47;;;12.90;88.00;;;11.44;100.00;96152.69;4963169;28;20054;-63
2022/10/14 05:03:06;;;;;;;25.00;12.10;;;13.00;87.80;;;11.42;100.00;96152.06;4987185;28;20035;-63
2022/10/14 05:05:32;;;;;;;18.55;10.20;;;12.80;88.10;;;11.40;100.00;96146.19;4987560;28;20032;-66
2022/10/14 05:07:58;;;;;;;16.17;8.77;;;12.80;88.20;;;11.40;100.00;96140.91;4983762;28;20031;-66
2022/10/14 05:10:23;;;;;;;14.10;9.20;;;12.80;88.20;;;11.41;100.00;96136.47;5004330;28;20579;-67
2022/10/14 05:12:49;;;;;;;13.48;8.32;;;12.90;88.10;;;11.42;100.00;96140.72;5000708;28;20574;-65
2022/10/14 05:15:15;;;;;;;9.90;6.70;;;13.00;88.10;;;11.40;100.00;96130.38;5003340;28;20462;-65
2022/10/14 05:17:43;;;;;;;10.77;7.43;;;12.90;88.10;;;11.41;100.00;96136.47;4972243;28;20045;-66
2022/10/14 05:20:10;;;;;;;10.77;7.00;;;12.90;88.10;;;11.41;100.00;96126.75;4978466;28;20073;-62
2022/10/14 05:22:35;;;;;;;11.38;8.35;;;12.90;88.20;;;11.42;100.00;96133.63;4961753;28;20050;-62
2022/10/14 05:25:02;;;;;;;9.77;7.25;;;13.00;88.30;;;11.46;100.00;96139.31;4986812;28;20077;-62
2022/10/14 05:27:28;;;;;;;9.90;6.72;;;13.00;88.00;;;11.46;100.00;96140.13;4971037;28;20037;-62
2022/10/14 05:29:53;;;;;;;8.25;6.22;;;13.10;87.90;;;11.48;100.00;96135.50;4987489;28;20040;-65
2022/10/14 05:32:19;;;;;;;9.02;6.53;;;13.10;87.90;;;11.49;100.00;96129.22;4986424;28;20159;-63
2022/10/14 05:34:45;;;;;;;10.55;6.63;;;13.10;87.70;;;11.50;100.00;96130.03;4978631;28;20367;-64
2022/10/14 05:37:10;;;;;;;9.07;5.80;;;13.10;87.70;;;11.52;100.00;96130.63;4994218;28;20115;-62
2022/10/14 05:39:36;;;;;;;7.40;5.88;;;13.10;87.70;;;11.56;100.00;96130.09;4985149;28;20204;-62
2022/10/14 05:42:02;;;;;;;8.07;6.03;;;13.10;87.70;;;11.58;100.00;96130.69;4969333;28;20045;-63
2022/10/14 05:44:28;;;;;;;7.72;6.03;;;13.20;87.60;;;11.59;100.00;96128.88;4990701;28;20117;-65
2022/10/14 05:46:53;;;;;;;8.63;6.03;;;13.20;87.50;;;11.61;100.00;96121.59;5007090;28;20131;-65
2022/10/14 05:49:19;;;;;;;9.15;5.90;;;13.20;87.50;;;11.62;100.00;96124.03;4983178;28;20061;-63
2022/10/14 05:51:45;;;;;;;8.68;5.97;;;13.30;87.50;;;11.63;100.00;96122.22;4969903;28;20113;-63
2022/10/14 05:54:11;;;;;;;7.57;6.40;;;13.30;87.30;;;11.65;100.00;96128.09;5007204;28;20034;-64
2022/10/14 05:56:37;;;;;;;9.75;6.55;;;13.30;87.20;;;11.67;100.00;96120.81;4982890;28;20049;-63
2022/10/14 05:59:03;;;;;;;7.75;6.20;;;13.30;87.20;;;11.68;100.00;96127.69;4984401;28;20083;-62
2022/10/14 06:01:30;;;;;;;10.00;6.25;;;13.40;87.10;;;11.71;100.00;96116.75;4972103;28;20040;-64
2022/10/14 06:03:55;;;;;;;7.18;5.75;;;13.40;87.10;;;11.72;100.00;96117.56;4996098;28;20058;-61
2022/10/14 06:06:21;;;;;;;10.32;6.05;;;13.40;87.10;;;11.76;100.00;96114.34;5007157;28;20116;-63
2022/10/14 06:08:47;;;;;;;10.40;6.13;;;13.50;87.10;;;11.78;100.00;96116.81;5005729;28;20064;-63
2022/10/14 06:11:13;;;;;;;7.72;6.07;;;13.40;87.00;;;11.80;100.00;96120.91;5005576;28;20582;-63
2022/10/14 06:13:39;;;;;;;9.68;5.40;;;13.50;86.90;;;11.84;100.00;96118.69;4992494;28;20414;-63
2022/10/14 06:16:06;;;;;;;8.45;5.60;;;13.60;87.30;;;11.90;100.00;96120.53;4989409;28;20035;-64
2022/10/14 06:18:33;;;;;;;9.40;5.65;;;13.60;87.10;;;11.95;100.00;96118.13;5001902;28;20034;-64
2022/10/14 06:20:59;;;;;;;11.80;5.47;;;13.70;87.20;;;12.00;100.00;96113.09;4972980;28;20042;-61
2022/10/14 06:23:24;;;;;;;6.57;5.25;;;13.80;87.00;;;12.06;100.00;96119.41;4984441;28;20033;-62
2022/10/14 06:25:50;;;;;;;7.30;4.63;;;13.80;86.60;;;12.12;100.00;96114.13;4986384;28;20088;-63
2022/10/14 06:28:16;;;;;;;8.52;4.90;;;13.90;86.30;;;12.19;100.00;96116.78;4984313;28;20117;-64
2022/10/14 06:30:42;;;;;;;8.68;4.38;;;14.00;86.20;;;12.25;100.00;96119.47;5007955;28;20072;-64
2022/10/14 06:33:07;;;;;;;5.60;4.30;;;14.10;86.10;;;12.32;100.00;96121.28;4992068;28;20517;-63
2022/10/14 06:35:33;;;;;;;5.13;4.05;;;14.10;85.90;;;12.35;100.00;96123.53;5001759;28;20509;-64
2022/10/14 06:37:59;;;;;;;7.45;4.25;;;14.10;85.30;;;12.40;100.00;96121.91;5000735;28;20887;-61
2022/10/14 06:40:24;;;;;;;9.18;4.43;;;14.20;85.20;;;12.45;100.00;96122.16;4988061;28;20556;-62
2022/10/14 06:42:52;;;;;;;10.10;4.75;;;14.20;85.10;;;12.47;100.00;96119.31;5006695;28;20509;-62
2022/10/14 06:45:18;;;;;;;6.32;4.63;;;14.20;84.70;;;12.51;100.00;96128.44;5001154;28;20034;-62
2022/10/14 06:47:44;;;;;;;7.85;4.55;;;14.30;85.00;;;12.55;100.00;96125.19;4973112;28;20045;-62
2022/10/14 06:50:09;;;;;;;5.70;4.35;;;14.30;84.80;;;12.58;100.00;96127.44;4959809;28;20678;-62
2022/10/14 06:52:35;;;;;;;9.18;3.88;;;14.30;84.40;;;12.62;100.00;96124.38;4971950;28;20549;-61
2022/10/14 06:55:01;;;;;;;9.55;5.07;;;14.40;84.60;;;12.65;100.00;96124.00;4975932;28;20398;-62
2022/10/14 06:57:27;;;;;;;6.28;4.15;;;14.30;84.60;;;12.66;100.00;96123.78;5006772;28;20045;-63
2022/10/14 06:59:53;;;;;;;5.43;3.80;;;14.30;84.60;;;12.70;100.00;96116.31;5004459;28;20061;-62
2022/10/14 07:02:18;;;;;;;6.80;4.50;;;14.40;84.60;;;12.74;100.00;96110.41;4990484;28;20068;-62
2022/10/14 07:04:44;;;;;;;5.50;4.22;;;14.50;84.50;;;12.77;100.00;96111.84;4974854;28;20057;-65
2022/10/14 07:07:10;;;;;;;7.18;4.18;;;14.50;84.10;;;12.81;100.00;96113.06;5001256;28;20129;-62
2022/10/14 07:09:36;;;;;;;5.50;4.07;;;14.60;84.20;;;12.86;100.00;96114.06;5000069;28;20049;-61
2022/10/14 07:12:01;;;;;;;10.65;4.68;;;14.60;83.90;;;12.91;100.00;96112.66;5005845;28;20065;-63
2022/10/14 07:14:27;;;;;;;6.20;3.92;;;14.70;83.80;;;12.95;100.00;96108.59;4972973;28;20467;-64
2022/10/14 07:16:53;;;;;;;5.20;4.22;;;14.70;83.20;;;13.01;100.00;96105.13;4987695;28;20535;-63
2022/10/14 07:19:19;;;;;;;5.63;4.45;;;14.80;83.40;;;13.06;100.00;96100.84;5004634;28;21022;-61
2022/10/14 07:21:45;;;;;;;5.55;3.97;;;15.00;83.50;;;13.12;100.00;96104.50;4987910;28;20042;-62
2022/10/14 07:24:11;;;;;;;5.68;4.25;;;15.00;82.90;;;13.15;100.00;96102.28;4983290;28;20038;-62
2022/10/14 07:26:37;;;;;;;5.20;3.60;;;15.10;82.70;;;13.20;100.00;96096.41;4953043;28;20046;-62
2022/10/14 07:29:04;;;;;;;5.32;3.50;;;15.10;82.20;;;13.26;100.00;96090.31;4990646;28;20575;-61
2022/10/14 07:31:30;;;;;;;6.63;3.55;;;15.30;82.10;;;13.33;100.00;96096.38;4964599;28;20100;-63
2022/10/14 07:33:56;;;;;;;6.03;3.70;;;15.50;81.40;;;13.48;100.00;96089.03;4974773;28;20041;-62
2022/10/14 07:36:21;;;;;;;5.78;3.67;;;16.10;79.70;;;13.67;100.00;96097.13;4982939;28;20070;-63
2022/10/14 07:38:47;;;;;;;6.63;3.65;;;16.50;78.50;;;13.87;100.00;96102.34;5003805;28;20545;-61
2022/10/14 07:41:16;;;;;;;9.23;5.68;;;16.90;77.80;;;14.07;100.00;96093.31;4970478;28;20574;-64
2022/10/14 07:43:50;;;;;;;10.32;7.18;;;17.00;76.70;;;14.26;100.00;96096.09;4973833;28;20062;-61
2022/10/14 07:46:27;;;;;;;9.00;4.97;;;17.20;76.30;;;14.42;100.00;96098.22;4997708;28;20045;-65
2022/10/14 07:48:53;;;;;;;15.52;11.77;;;17.40;75.60;;;14.61;100.00;96097.31;4984927;28;20513;-63
2022/10/14 07:51:19;;;;;;;6.97;4.40;;;18.10;74.10;;;14.82;100.00;96093.50;5001085;28;20038;-62
2022/10/14 07:53:47;;;;;;;5.45;3.38;;;18.40;71.80;;;15.05;100.00;96098.22;4988281;28;20148;-61
2022/10/14 07:56:12;;;;;;;6.47;3.35;;;18.70;70.40;;;15.26;100.00;96092.53;5001145;28;20039;-62
2022/10/14 07:58:38;;;;;;;5.43;2.88;;;19.00;69.30;;;15.43;100.00;96097.28;5000925;28;20038;-63
2022/10/14 08:01:04;;;;;;;3.55;2.72;;;19.00;69.20;;;15.64;100.00;96104.84;4982291;28;20066;-64
2022/10/14 08:03:30;;;;;;;4.53;2.53;;;20.00;67.00;;;15.89;100.00;96099.44;4987307;28;20088;-62
2022/10/14 08:06:00;;;;;;;3.47;2.85;;;20.20;66.20;;;16.19;100.00;96096.81;5006519;28;20034;-64
2022/10/14 08:08:27;;;;;;;;;;;21.00;63.70;;;16.45;100.00;96091.16;4973880;28;20037;-63
2022/10/14 08:11:19;;;;;;;4.53;2.35;;;21.00;61.50;;;16.67;100.00;96096.00;4988614;28;20316;-63
2022/10/14 08:13:45;;;;;;;10.05;3.00;;;20.50;63.30;;;16.77;100.00;96098.91;4987550;28;20023;-63
2022/10/14 08:16:28;;;;;;;5.07;2.38;;;20.10;63.80;;;16.94;100.00;96102.50;4972944;28;20041;-62
2022/10/14 08:18:56;;;;;;;3.90;2.35;;;21.10;61.10;;;17.17;100.00;96104.38;4985446;28;20059;-64
2022/10/14 08:21:22;;;;;;;4.00;2.10;;;21.90;59.10;;;17.39;100.00;96094.00;4984969;28;20097;-65
2022/10/14 08:23:47;;;;;;;4.05;2.00;;;22.40;56.10;;;17.66;100.00;96091.69;4956575;28;20038;-62
2022/10/14 08:26:27;;;;;;;4.15;1.70;;;22.90;55.00;;;17.94;100.00;96093.63;4970634;28;20030;-62
2022/10/14 08:28:52;;;;;;;4.55;2.53;;;23.20;54.00;;;18.23;100.00;96087.28;4986719;28;20042;-63
2022/10/14 08:31:18;;;;;;;32.42;27.58;;;23.60;52.60;;;18.56;100.00;96088.44;4971282;28;20072;-63
2022/10/14 08:33:44;;;;;;;3.58;2.75;;;24.20;51.60;;;18.90;100.00;96083.97;4981212;28;20037;-63
2022/10/14 08:36:10;;;;;;;2.95;1.85;;;24.70;49.70;;;19.26;100.00;96085.38;5005381;28;20111;-63
2022/10/14 08:38:36;;;;;;;4.78;1.67;;;24.80;49.90;;;19.57;100.00;96082.09;4968361;28;20038;-63
2022/10/14 08:41:11;;;;;;;5.95;1.60;;;25.20;48.70;;;19.88;92.79;96087.84;4966942;28;20058;-62
2022/10/14 08:44:10;;;;;;;2.92;1.45;;;25.10;48.30;;;20.19;86.92;96081.84;4998526;28;20786;-63
2022/10/14 08:46:41;;;;;;;2.28;1.60;;;25.70;45.90;;;20.53;92.43;96080.88;4992243;28;20038;-67
2022/10/14 08:49:18;;;;;;;3.97;1.58;;;25.90;44.90;;;20.80;83.93;96079.81;4999712;28;20045;-64
2022/10/14 08:51:47;;;;;;;2.67;1.48;;;26.00;44.80;;;21.07;89.32;96073.63;4986694;28;20038;-64
2022/10/14 08:54:24;;;;;;;3.58;1.35;;;26.30;44.50;;;21.31;81.29;96069.56;4972197;28;20034;-61
2022/10/14 08:56:49;;;;;;;4.30;1.50;;;26.40;43.80;;;21.54;86.02;96062.22;4988640;28;20670;-62
2022/10/14 08:59:15;;;;;;;2.50;1.40;;;26.70;42.90;;;21.72;82.45;96061.75;4956294;28;20065;-62
2022/10/14 09:01:52;;;;;;;4.80;1.55;;;26.50;42.20;;;22.03;74.14;96068.06;4988199;28;20033;-63
2022/10/14 09:04:18;;;;;;;4.60;1.35;;;26.90;41.80;;;22.16;78.50;96067.59;4954623;28;20038;-63
2022/10/14 09:06:46;;;;;;;2.78;1.23;;;27.00;40.90;;;22.38;77.90;96067.41;4981310;28;20077;-64
2022/10/14 09:09:31;;;;;;;2.63;1.10;;;27.50;41.00;;;22.67;68.83;96064.25;4981934;28;20469;-62
2022/10/14 09:12:03;;;;;;;2.45;1.17;;;27.90;39.60;;;22.92;70.49;96064.31;4966876;28;20045;-62
2022/10/14 09:14:35;;;;;;;1.77;0.98;;;28.40;39.10;;;23.18;67.35;96065.91;4972695;28;20104;-62
2022/10/14 09:17:42;;;;;;;3.00;1.20;;;28.70;37.50;;;23.49;63.42;96060.50;5003176;28;20510;-62
2022/10/14 09:20:18;;;;;;;1.80;1.20;;;29.10;36.80;;;23.67;63.91;96065.34;4971652;28;20133;-62
2022/10/14 09:22:49;;;;;;;2.15;1.20;;;29.10;36.30;;;23.78;67.94;96055.38;5004721;28;20464;-62
2022/10/14 09:25:16;;;;;;;2.20;1.08;;;29.60;35.80;;;23.94;68.29;96061.47;4984279;28;20037;-62
2022/10/14 09:27:42;;;;;;;5.07;3.42;;;29.60;35.40;;;24.01;68.24;96056.63;4968961;28;20026;-62
2022/10/14 09:30:17;;;;;;;35.95;32.17;;;29.50;36.50;;;24.06;61.06;96053.94;4997808;28;20130;-63
2022/10/14 09:32:51;;;;;;;3.13;2.33;;;29.60;35.50;;;24.11;61.62;96045.84;4987219;28;20362;-64
2022/10/14 09:35:23;;;;;;;2.05;1.10;;;29.30;35.40;;;24.19;63.10;96052.50;4967864;28;20462;-63
2022/10/14 09:37:49;;;;;;;3.00;1.20;;;29.20;36.60;;;24.24;65.41;96061.38;5003428;28;20225;-62
2022/10/14 09:40:35;;;;;;;3.00;1.10;;;29.50;35.60;;;24.51;57.79;96054.81;4981525;28;20041;-64
2022/10/14 09:43:08;;;;;;;1.55;0.95;;;31.00;33.10;;;24.86;59.75;96051.84;5005484;28;20026;-64
2022/10/14 09:45:56;;;;;;;1.95;1.00;;;31.50;32.90;;;25.06;57.83;96050.94;5003122;28;20525;-63
2022/10/14 09:48:41;;;;;;;2.65;1.67;;;31.50;33.10;;;25.34;55.90;96046.66;4991382;28;20042;-62
2022/10/14 09:51:25;;;;;;;2.05;0.95;;;32.40;30.30;;;25.48;54.29;96042.19;5005539;28;20034;-62
2022/10/14 09:53:53;;;;;;;3.17;0.90;;;32.00;29.90;;;25.46;58.69;96039.00;4959781;28;20367;-63
2022/10/14 09:56:36;;;;;;;1.45;0.90;;;31.40;30.60;;;25.68;51.70;96029.66;4994322;28;20064;-63
2022/10/14 09:59:14;;;;;;;1.58;0.98;;;32.70;29.30;;;25.89;51.81;96029.13;4974958;28;20116;-63
2022/10/14 10:01:41;;;;;;;2.47;0.82;;;33.00;29.10;;;26.05;57.40;96042.44;4995167;28;20046;-63
2022/10/14 10:04:40;;;;;;;2.58;1.20;;;32.70;29.80;;;26.21;50.08;96033.84;4956832;28;20510;-63
2022/10/14 10:07:27;;;;;;;1.95;0.70;;;32.80;28.20;;;26.29;49.41;96028.91;4988246;28;20038;-63
2022/10/14 10:09:57;;;;;;;1.70;0.90;;;32.80;28.70;;;26.52;50.53;96033.47;4987992;28;20504;-62
2022/10/14 10:12:31;;;;;;;2.17;0.80;;;33.00;28.70;;;26.71;47.71;96025.38;4975944;28;20033;-63
2022/10/14 10:15:03;;;;;;;2.15;0.80;;;33.50;27.70;;;26.70;49.20;96029.94;4957222;28;20038;-63
2022/10/14 10:17:31;;;;;;;2.13;0.77;;;32.60;28.70;;;27.02;51.29;96031.91;4976985;28;20033;-64
2022/10/14 10:20:32;;;;;;;1.25;0.68;;;34.60;27.00;;;27.34;47.02;96020.28;4990549;28;20409;-63
2022/10/14 10:23:25;;;;;;;1.50;0.70;;;35.10;26.20;;;27.57;46.21;96018.50;5007075;28;20129;-64